Rib Lake, Wisconsin
Current Conditions -  °F | °C
As of 7:35 AM on Wednesday 26 Nov 2014 (Local Time) from KMDZ Reporting Station
Overcast Overcast  
Wind Chill: 18°   Ceiling: 7000
Heat Index: 18°   Visibility: 7mi
Dew Point: 15°   Wind: 3mph
Humidity: 88%   Direction: 110°ESE
Pressure: 30.08"   Gusts: NA
Location:  45.32°N, 90.21°W
Report Text: KMDZ 261335Z AUTO 11003KT 7SM OVC070 M08/M10 A3008 RMK AO2 T10801097
Loading
Personal Weather Stations






























Interactive Weather Map New forecast layout! Learn more

10-Day Weather Forecast

Advertisements
Track Severe Weather on mobile